.
WxDataArchive / Data Records for 2009-08-18
2009-08-17 August 2009 2009-08-19

Data Records for Tuesday, 18 August 2009

Time	Temp	Chill	HIndex	Humid	Dewpt	 Wind 	HiWind	WindDir	Rain 	Barom 
-----	----	-----	------	-----	-----	------	------	-------	-----	----- 
00:00	69.9	69.9	69.9	96	68.7	0	1	248	0.01	30.049 
00:05	69.9	69.9	69.9	96	68.7	0	1	248	0.01	30.049 
00:10	69.8	69.8	69.8	96	68.6	0	0	---	0.01	30.049 
00:15	69.8	69.8	69.8	96	68.6	0	1	248	0.01	30.025 
00:20	69.8	69.8	69.8	96	68.6	0	1	248	0.01	30.025 
00:25	69.8	69.8	69.8	96	68.6	0	1	248	0.00	30.025 
00:30	69.6	69.6	69.6	96	68.4	0	1	248	0.00	30.028 
00:35	69.6	69.6	69.6	96	68.4	0	1	248	0.00	30.028 
00:40	69.4	69.4	69.4	96	68.2	0	1	248	0.00	30.028 
00:45	69.3	69.3	69.3	96	68.1	0	2	248	0.00	30.026 
00:50	69.3	69.3	69.3	96	68.1	0	1	248	0.00	30.026 
00:55	69.3	69.3	69.3	96	68.1	0	1	248	0.00	30.026 
01:00	69.3	69.3	69.3	96	68.1	0	2	248	0.00	30.024 
01:05	69.1	69.1	69.1	96	67.9	0	1	248	0.00	30.024 
01:10	69.1	69.1	69.1	96	67.9	0	1	248	0.00	30.024 
01:15	69.1	69.1	69.1	96	67.9	0	1	248	0.00	30.030 
01:20	69.1	69.1	69.1	96	67.9	0	2	248	0.00	30.030 
01:25	69.1	69.1	69.1	96	67.9	0	2	248	0.00	30.030 
01:30	69.1	69.1	69.1	96	67.9	0	2	248	0.00	30.029 
01:35	69.1	69.1	69.1	96	67.9	0	1	248	0.00	30.029 
01:40	69.1	69.1	69.1	96	67.9	0	1	248	0.02	30.029 
01:45	69.1	69.1	69.1	96	67.9	0	1	248	0.00	30.023 
01:50	68.9	68.9	68.9	96	67.7	0	1	248	0.00	30.023 
01:55	68.9	68.9	68.9	96	67.7	0	1	248	0.00	30.023 
02:00	68.9	68.9	68.9	96	67.7	0	1	248	0.00	30.013 
02:05	68.8	68.8	68.8	96	67.6	0	2	248	0.00	30.013 
02:10	68.8	68.8	68.8	96	67.6	0	2	248	0.00	30.013 
02:15	68.8	68.8	68.8	96	67.6	0	1	248	0.00	30.007 
02:20	68.6	68.6	68.6	96	67.4	0	1	248	0.00	30.007 
02:25	68.8	68.8	68.8	96	67.6	0	3	248	0.00	30.007 
02:30	68.8	68.8	68.8	96	67.6	2	4	270	0.00	30.019 
02:35	68.8	68.8	68.8	96	67.6	1	2	270	0.00	30.019 
02:40	68.8	68.8	68.8	96	67.6	0	1	270	0.00	30.019 
02:45	68.8	68.8	68.8	96	67.6	0	1	270	0.00	30.015 
02:50	68.8	68.8	68.8	96	67.6	0	1	270	0.01	30.015 
02:55	68.8	68.8	68.8	96	67.6	0	0	---	0.00	30.015 
03:00	68.8	68.8	68.8	96	67.6	0	0	---	0.01	30.014 
03:05	68.8	68.8	68.8	96	67.6	0	0	---	0.01	30.014 
03:10	68.8	68.8	68.8	96	67.6	0	1	270	0.02	30.014 
03:15	68.8	68.8	68.8	96	67.6	0	1	270	0.01	30.012 
03:20	68.8	68.8	68.8	96	67.6	0	1	270	0.00	30.012 
03:25	68.8	68.8	68.8	96	67.6	0	1	270	0.00	30.012 
03:30	68.8	68.8	68.8	97	67.9	0	1	270	0.00	30.009 
03:35	68.8	68.8	68.8	97	67.9	0	1	270	0.00	30.009 
03:40	68.6	68.6	68.6	97	67.7	0	0	---	0.00	30.009 
03:45	68.6	68.6	68.6	96	67.4	0	0	---	0.00	30.006 
03:50	68.4	68.4	68.4	97	67.5	0	1	270	0.00	30.006 
03:55	68.4	68.4	68.4	97	67.5	0	0	---	0.00	30.006 
04:00	68.4	68.4	68.4	97	67.5	0	0	---	0.00	30.006 
04:05	68.4	68.4	68.4	97	67.5	0	0	---	0.00	30.006 
04:10	68.3	68.3	68.3	97	67.4	0	1	270	0.00	30.006 
04:15	68.3	68.3	68.3	97	67.4	0	0	---	0.00	30.000 
04:20	68.3	68.3	68.3	97	67.4	0	0	---	0.00	30.000 
04:25	68.3	68.3	68.3	97	67.4	0	0	---	0.00	30.000 
04:30	68.3	68.3	68.3	97	67.4	0	1	270	0.00	29.999 
04:35	68.4	68.4	68.4	97	67.5	0	0	---	0.00	29.999 
04:40	68.4	68.4	68.4	97	67.5	0	0	---	0.00	29.999 
04:45	68.4	68.4	68.4	97	67.5	0	0	---	0.00	29.992 
04:50	68.3	68.3	68.3	97	67.4	0	0	---	0.00	29.992 
04:55	68.3	68.3	68.3	97	67.4	0	0	---	0.00	29.992 
05:00	68.3	68.3	68.3	97	67.4	0	0	---	0.00	29.989 
05:05	68.3	68.3	68.3	97	67.4	0	0	---	0.00	29.989 
05:10	68.4	68.4	68.4	97	67.5	0	0	---	0.00	29.989 
05:15	68.4	68.4	68.4	97	67.5	0	0	---	0.00	29.988 
05:20	68.4	68.4	68.4	97	67.5	0	0	---	0.00	29.988 
05:25	68.4	68.4	68.4	97	67.5	0	0	---	0.00	29.988 
05:30	68.4	68.4	68.4	97	67.5	0	0	---	0.00	29.993 
05:35	68.6	68.6	68.6	97	67.7	0	0	---	0.00	29.993 
05:40	68.6	68.6	68.6	97	67.7	0	0	---	0.00	29.993 
05:45	68.6	68.6	68.6	97	67.7	0	0	---	0.00	29.997 
05:50	68.6	68.6	68.6	97	67.7	0	0	---	0.00	29.997 
05:55	68.6	68.6	68.6	97	67.7	0	0	---	0.00	29.997 
06:00	68.6	68.6	68.6	97	67.7	0	0	---	0.00	30.002 
06:05	68.6	68.6	68.6	97	67.7	0	0	---	0.00	30.002 
06:10	68.8	68.8	68.8	97	67.9	0	1	270	0.00	30.002 
06:15	68.8	68.8	68.8	97	67.9	0	1	270	0.00	30.004 
06:20	68.9	68.9	68.9	97	68.0	0	2	270	0.00	30.004 
06:25	68.9	68.9	68.9	97	68.0	0	1	270	0.00	30.004 
06:30	68.9	68.9	68.9	97	68.0	0	1	270	0.00	30.001 
06:35	68.9	68.9	68.9	97	68.0	0	1	270	0.00	30.001 
06:40	68.9	68.9	68.9	97	68.0	0	1	270	0.00	30.001 
06:45	68.8	68.8	68.8	97	67.9	0	1	270	0.00	30.011 
06:50	68.8	68.8	68.8	97	67.9	0	1	270	0.00	30.011 
06:55	68.6	68.6	68.6	97	67.7	0	1	270	0.00	30.011 
07:00	68.6	68.6	68.6	97	67.7	0	1	270	0.00	30.012 
07:05	68.6	68.6	68.6	97	67.7	0	1	270	0.00	30.012 
07:10	68.6	68.6	68.6	97	67.7	0	0	---	0.00	30.012 
07:15	68.4	68.4	68.4	97	67.5	0	1	270	0.00	30.016 
07:20	68.4	68.4	68.4	97	67.5	0	1	270	0.00	30.016 
07:25	68.4	68.4	68.4	97	67.5	0	1	270	0.00	30.016 
07:30	68.4	68.4	68.4	97	67.5	0	1	270	0.00	30.015 
07:35	68.4	68.4	68.4	97	67.5	0	1	270	0.00	30.015 
07:40	68.4	68.4	68.4	97	67.5	0	0	---	0.00	30.015 
07:45	68.6	68.6	68.6	97	67.7	0	0	---	0.00	30.014 
07:50	68.8	68.8	68.8	97	67.9	0	1	270	0.00	30.014 
07:55	68.9	68.9	68.9	97	68.0	0	0	---	0.00	30.014 
08:00	69.1	69.1	69.1	97	68.2	0	0	---	0.00	30.015 
08:05	69.3	69.3	69.3	97	68.4	0	1	270	0.00	30.015 
08:10	69.4	69.4	69.4	97	68.5	0	1	270	0.00	30.015 
08:15	69.6	69.6	69.6	97	68.7	0	0	---	0.00	30.017 
08:20	69.6	69.6	69.6	97	68.7	0	2	270	0.00	30.017 
08:25	69.6	69.6	69.6	97	68.7	0	1	270	0.00	30.017 
08:30	69.6	69.6	69.6	97	68.7	0	1	270	0.00	30.017 
08:35	69.8	69.8	69.8	97	68.9	0	2	270	0.00	30.017 
08:40	69.6	69.6	69.6	97	68.7	0	2	270	0.00	30.017 
08:45	69.6	69.6	69.6	97	68.7	0	1	270	0.00	30.019 
08:50	69.8	69.8	69.8	97	68.9	0	1	270	0.00	30.019 
08:55	69.9	69.9	69.9	97	69.0	0	2	270	0.00	30.019 
09:00	69.9	69.9	69.9	97	69.0	1	2	270	0.00	30.016 
09:05	69.8	69.8	69.8	97	68.9	0	2	270	0.00	30.016 
09:10	69.9	69.9	69.9	97	69.0	0	1	270	0.00	30.016 
09:15	69.9	69.9	69.9	97	69.0	0	1	270	0.00	30.019 
09:20	70.1	70.1	70.1	97	69.2	0	2	270	0.00	30.019 
09:25	69.9	69.9	69.9	97	69.0	0	2	270	0.00	30.019 
09:30	70.1	70.1	70.1	97	69.2	0	2	270	0.00	30.017 
09:35	70.3	70.3	70.3	97	69.4	0	2	270	0.00	30.017 
09:40	70.3	70.3	70.3	97	69.4	0	1	270	0.00	30.017 
09:45	70.4	70.4	70.4	97	69.5	0	1	270	0.00	30.018 
09:50	70.4	70.4	70.4	97	69.5	0	2	270	0.00	30.018 
09:55	70.4	70.4	70.4	97	69.5	0	2	270	0.00	30.018 
10:00	70.4	70.4	70.4	97	69.5	0	2	270	0.00	30.017 
10:05	70.4	70.4	70.4	97	69.5	1	2	270	0.00	30.017 
10:10	70.6	70.6	70.6	97	69.7	1	2	270	0.00	30.017 
10:15	70.6	70.6	70.6	96	69.4	1	3	270	0.00	30.016 
10:20	70.4	70.4	70.4	96	69.2	1	3	270	0.00	30.016 
10:25	70.6	70.6	70.6	96	69.4	0	2	270	0.00	30.016 
10:30	70.8	70.8	70.8	96	69.6	1	2	270	0.00	30.025 
10:35	70.6	70.6	70.6	95	69.1	1	4	270	0.00	30.025 
10:40	70.6	70.6	70.6	95	69.1	1	3	270	0.00	30.025 
10:45	70.9	70.9	70.9	94	69.1	1	3	270	0.00	30.028 
10:50	71.1	71.1	71.1	93	69.0	2	4	270	0.00	30.028 
10:55	71.1	71.1	71.1	92	68.7	1	3	270	0.00	30.028 
11:00	71.5	71.5	71.5	92	69.0	1	2	248	0.00	30.028 
11:05	71.8	71.8	71.8	90	68.7	1	3	248	0.00	30.028 
11:10	72.1	72.1	72.1	89	68.7	1	3	248	0.00	30.028 
11:15	72.7	72.7	72.7	88	68.9	1	3	248	0.00	30.029 
11:20	72.8	72.8	72.8	87	68.7	1	3	248	0.00	30.029 
11:25	73.3	73.3	73.3	86	68.8	1	3	248	0.00	30.029 
11:30	73.7	73.7	73.7	84	68.6	1	3	248	0.00	30.024 
11:35	74.6	74.6	74.6	84	69.4	1	2	248	0.00	30.024 
11:40	74.6	74.6	74.6	81	68.4	1	3	248	0.00	30.024 
11:45	74.4	74.4	74.4	81	68.2	1	4	248	0.00	30.018 
11:50	74.6	74.6	74.6	81	68.4	2	4	248	0.00	30.018 
11:55	74.9	74.9	74.9	81	68.7	1	3	270	0.00	30.018 
12:00	75.3	75.3	76.1	79	68.3	1	3	248	0.00	30.017 
12:05	75.4	75.4	76.2	79	68.4	1	3	270	0.00	30.017 
12:10	75.3	75.3	76.2	78	68.0	2	4	270	0.00	30.017 
12:15	75.3	75.3	76.2	78	68.0	2	5	292	0.00	30.024 
12:20	76.0	76.0	77.2	77	68.3	1	4	270	0.00	30.024 
12:25	76.7	76.7	78.2	76	68.5	2	4	270	0.00	30.024 
12:30	76.7	76.7	78.3	75	68.2	1	4	270	0.00	30.016 
12:35	76.3	76.3	77.8	74	67.4	2	4	248	0.00	30.016 
12:40	76.1	76.1	77.4	76	68.0	2	4	270	0.00	30.016 
12:45	75.8	75.8	77.1	75	67.3	2	4	270	0.00	30.026 
12:50	76.0	76.0	77.2	77	68.3	1	4	270	0.00	30.026 
12:55	76.5	76.5	77.9	77	68.7	1	3	270	0.00	30.026 
13:00	76.7	76.7	78.3	74	67.8	2	4	270	0.00	30.018 
13:05	76.5	76.5	78.0	76	68.4	2	5	315	0.00	30.018 
13:10	76.8	76.8	78.4	75	68.3	2	5	270	0.00	30.018 
13:15	77.0	77.0	78.7	74	68.1	2	4	292	0.00	30.011 
13:20	76.8	76.8	78.4	74	67.9	2	4	270	0.00	30.011 
13:25	76.7	76.7	78.3	75	68.2	2	3	338	0.00	30.011 
13:30	76.3	76.3	77.7	76	68.2	2	4	292	0.00	30.017 
13:35	76.0	76.0	77.2	77	68.3	1	3	270	0.00	30.017 
13:40	76.3	76.3	77.6	77	68.5	1	3	270	0.00	30.017 
13:45	77.2	77.2	79.0	76	69.0	1	4	270	0.00	30.010 
13:50	77.9	77.9	80.0	73	68.5	2	4	292	0.00	30.010 
13:55	78.1	78.1	80.3	73	68.7	1	3	292	0.00	30.010 
14:00	78.1	78.1	80.2	72	68.3	1	4	315	0.00	30.010 
14:05	77.9	77.9	79.9	71	67.7	2	3	315	0.00	30.010 
14:10	78.6	78.6	81.2	76	70.4	0	2	315	0.00	30.010 
14:15	79.4	79.4	81.8	68	67.9	1	3	270	0.00	30.009 
14:20	79.9	79.9	82.6	68	68.4	2	5	270	0.00	30.009 
14:25	80.3	80.3	82.9	66	67.9	2	4	270	0.00	30.009 
14:30	80.3	80.3	83.0	67	68.3	2	4	248	0.00	30.008 
14:35	80.3	80.3	82.9	66	67.9	1	3	0	0.00	30.008 
14:40	79.9	79.9	82.2	65	67.1	1	4	270	0.00	30.008 
14:45	79.2	79.2	81.5	68	67.7	2	4	270	0.00	30.008 
14:50	79.0	79.0	81.3	69	67.9	1	3	292	0.00	30.008 
14:55	79.2	79.2	81.6	69	68.1	1	3	270	0.00	30.008 
15:00	79.6	79.6	82.0	67	67.7	2	4	315	0.00	29.998 
15:05	79.8	79.8	82.3	67	67.8	2	4	248	0.00	29.998 
15:10	79.8	79.8	82.3	67	67.8	1	3	270	0.00	29.998 
15:15	79.8	79.8	82.4	68	68.3	1	3	270	0.00	29.993 
15:20	80.3	80.3	82.9	66	67.9	1	4	270	0.00	29.993 
15:25	80.3	80.3	82.7	64	67.0	2	3	248	0.00	29.993 
15:30	79.8	79.8	82.2	66	67.4	1	3	270	0.00	29.995 
15:35	79.8	79.8	82.3	67	67.8	1	4	248	0.00	29.995 
15:40	79.6	79.6	81.9	66	67.2	1	3	248	0.00	29.995 
15:45	79.4	79.4	81.7	67	67.5	1	2	248	0.00	29.994 
15:50	79.2	79.2	81.5	68	67.7	1	3	248	0.00	29.994 
15:55	79.4	79.4	81.8	68	67.9	1	4	248	0.00	29.994 
16:00	79.6	79.6	82.1	68	68.1	1	4	270	0.00	29.992 
16:05	79.6	79.6	82.0	67	67.7	1	3	248	0.00	29.992 
16:10	79.6	79.6	82.0	67	67.7	2	5	270	0.00	29.992 
16:15	79.4	79.4	81.8	68	67.9	2	4	270	0.00	29.987 
16:20	78.8	78.8	80.9	66	66.5	1	5	270	0.00	29.987 
16:25	78.6	78.6	80.7	68	67.1	1	3	270	0.00	29.987 
16:30	78.8	78.8	81.1	69	67.7	1	4	270	0.00	29.984 
16:35	78.8	78.8	81.0	68	67.3	1	3	270	0.00	29.984 
16:40	78.8	78.8	80.9	67	66.9	1	3	270	0.00	29.984 
16:45	78.8	78.8	80.9	67	66.9	1	4	270	0.00	29.987 
16:50	78.8	78.8	81.0	68	67.3	1	4	292	0.00	29.987 
16:55	79.0	79.0	81.2	67	67.1	2	4	292	0.00	29.987 
17:00	79.2	79.2	81.6	69	68.1	1	3	292	0.00	29.989 
17:05	79.4	79.4	81.6	66	67.0	2	4	292	0.00	29.989 
17:10	79.6	79.6	81.8	65	66.8	2	4	248	0.00	29.989 
17:15	79.4	79.4	81.5	64	66.1	1	4	270	0.00	29.981 
17:20	79.0	79.0	81.1	66	66.6	1	3	270	0.00	29.981 
17:25	78.8	78.8	80.9	67	66.9	1	4	248	0.00	29.981 
17:30	78.8	78.8	80.9	67	66.9	1	3	248	0.00	29.978 
17:35	79.0	79.0	81.1	66	66.6	2	4	248	0.00	29.978 
17:40	79.6	79.6	81.8	65	66.8	1	5	292	0.00	29.978 
17:45	79.8	79.8	82.1	65	67.0	1	4	270	0.00	29.974 
17:50	79.9	79.9	82.3	66	67.5	1	2	270	0.00	29.974 
17:55	80.3	80.3	82.8	65	67.4	1	2	270	0.00	29.974 
18:00	80.3	80.3	82.8	65	67.4	1	4	292	0.00	29.973 
18:05	79.9	79.9	82.2	65	67.1	1	3	248	0.00	29.973 
18:10	79.8	79.8	82.0	64	66.5	1	2	248	0.00	29.973 
18:15	79.6	79.6	81.7	64	66.3	1	3	270	0.00	29.969 
18:20	79.2	79.2	81.3	65	66.4	2	4	270	0.00	29.969 
18:25	79.2	79.2	81.5	67	67.3	0	3	270	0.00	29.969 
18:30	79.2	79.2	81.5	67	67.3	1	3	248	0.00	29.970 
18:35	79.0	79.0	81.3	68	67.5	0	2	248	0.00	29.970 
18:40	78.8	78.8	80.8	65	66.0	1	4	248	0.00	29.970 
18:45	78.6	78.6	80.7	67	66.7	1	2	270	0.00	29.974 
18:50	78.5	78.5	80.5	66	66.2	1	3	270	0.00	29.974 
18:55	78.3	78.3	80.3	67	66.4	0	2	248	0.00	29.974 
19:00	78.3	78.3	80.2	66	66.0	1	2	248	0.00	29.969 
19:05	78.5	78.5	80.5	67	66.6	1	2	248	0.00	29.969 
19:10	78.6	78.6	80.6	66	66.3	0	2	248	0.00	29.969 
19:15	78.5	78.5	80.5	66	66.2	0	2	248	0.00	29.969 
19:20	78.3	78.3	80.3	67	66.4	0	2	248	0.00	29.969 
19:25	78.1	78.1	80.1	69	67.1	0	1	270	0.00	29.969 
19:30	78.1	78.1	80.1	68	66.7	0	2	270	0.00	29.969 
19:35	78.1	78.1	80.1	68	66.7	1	3	270	0.00	29.969 
19:40	77.9	77.9	79.8	68	66.5	0	1	270	0.00	29.969 
19:45	77.7	77.7	79.6	68	66.3	1	2	270	0.00	29.966 
19:50	77.6	77.6	79.5	68	66.2	1	2	270	0.00	29.966 
19:55	77.4	77.4	79.2	69	66.4	0	1	270	0.00	29.966 
20:00	77.2	77.2	79.0	70	66.6	0	1	270	0.00	29.965 
20:05	76.8	76.8	78.5	70	66.3	0	2	270	0.00	29.965 
20:10	76.7	76.7	78.4	71	66.6	0	1	270	0.00	29.965 
20:15	76.5	76.5	78.2	71	66.4	0	2	270	0.00	29.965 
20:20	76.3	76.3	77.9	71	66.2	0	2	270	0.00	29.965 
20:25	76.1	76.1	77.7	72	66.4	0	2	270	0.00	29.965 
20:30	76.0	76.0	77.5	72	66.3	0	2	270	0.00	29.968 
20:35	75.8	75.8	77.3	72	66.1	0	1	270	0.00	29.968 
20:40	75.6	75.6	77.0	73	66.3	0	1	270	0.00	29.968 
20:45	75.4	75.4	76.8	73	66.1	0	1	270	0.00	29.973 
20:50	75.1	75.1	76.4	74	66.2	0	0	---	0.00	29.973 
20:55	74.9	74.9	74.9	75	66.4	0	0	---	0.00	29.973 
21:00	74.6	74.6	74.6	76	66.5	0	0	---	0.00	29.974 
21:05	74.2	74.2	74.2	76	66.1	0	0	---	0.00	29.974 
21:10	73.9	73.9	73.9	77	66.2	0	0	---	0.00	29.974 
21:15	73.7	73.7	73.7	78	66.4	0	0	---	0.00	29.976 
21:20	73.5	73.5	73.5	79	66.6	0	0	---	0.00	29.976 
21:25	73.2	73.2	73.2	80	66.6	0	0	---	0.00	29.976 
21:30	73.0	73.0	73.0	81	66.8	0	0	---	0.00	29.978 
21:35	72.8	72.8	72.8	81	66.6	0	0	---	0.00	29.978 
21:40	72.7	72.7	72.7	81	66.5	0	0	---	0.00	29.978 
21:45	72.3	72.3	72.3	82	66.5	0	0	---	0.00	29.976 
21:50	72.1	72.1	72.1	83	66.6	0	0	---	0.00	29.976 
21:55	72.0	72.0	72.0	83	66.5	0	0	---	0.00	29.976 
22:00	71.8	71.8	71.8	84	66.7	0	0	---	0.00	29.983 
22:05	71.8	71.8	71.8	84	66.7	0	0	---	0.00	29.983 
22:10	71.6	71.6	71.6	84	66.5	0	0	---	0.00	29.983 
22:15	71.5	71.5	71.5	85	66.7	0	0	---	0.00	29.981 
22:20	71.3	71.3	71.3	85	66.5	0	0	---	0.00	29.981 
22:25	71.1	71.1	71.1	86	66.7	0	0	---	0.00	29.981 
22:30	70.9	70.9	70.9	86	66.5	0	0	---	0.00	29.984 
22:35	70.8	70.8	70.8	86	66.4	0	0	---	0.00	29.984 
22:40	70.6	70.6	70.6	87	66.5	0	0	---	0.00	29.984 
22:45	70.4	70.4	70.4	87	66.3	0	0	---	0.00	29.983 
22:50	70.3	70.3	70.3	88	66.6	0	0	---	0.00	29.983 
22:55	69.9	69.9	69.9	88	66.2	0	0	---	0.00	29.983 
23:00	69.8	69.8	69.8	88	66.1	0	0	---	0.00	29.983 
23:05	69.6	69.6	69.6	89	66.2	0	0	---	0.00	29.983 
23:10	69.4	69.4	69.4	89	66.0	0	0	---	0.00	29.983 
23:15	69.3	69.3	69.3	90	66.2	0	0	---	0.00	29.981 
23:20	69.1	69.1	69.1	90	66.0	0	0	---	0.00	29.981 
23:25	68.9	68.9	68.9	90	65.8	0	0	---	0.00	29.981 
23:30	68.9	68.9	68.9	91	66.2	0	0	---	0.00	29.981 
23:35	68.8	68.8	68.8	91	66.1	0	0	---	0.00	29.981 
23:40	68.6	68.6	68.6	92	66.2	0	0	---	0.00	29.981 
23:45	68.6	68.6	68.6	92	66.2	0	0	---	0.00	29.982 
23:50	68.6	68.6	68.6	92	66.2	0	0	---	0.00	29.982 
23:55	68.6	68.6	68.6	92	66.2	0	0	---	0.00	29.982 

CoCoRaHS
IN-AL-39
A2 Web Hosting
Creative Commons License
GoDaddy
search engine by freefind advanced

loaded 2018-11-20 15:17:20 • last modified 2010-11-18 10:43:29
Privacy PolicyDisclaimer
• wx.awcolley.com is powered by PmWiki v.2002016 •
• all content (unless otherwise noted) © 2018 A W Colley